Time;durP1;ratioP1;P1;durP2;ratioP2;P2;SDS_P1;SDS_P2;PMS_P1;PMS_P2;Temp;Humidity;BMP_temperature;BMP_pressure;BME280_temperature;BME280_humidity;BME280_pressure;Samples;Min_cycle;Max_cycle;Signal;HPM_P1;HPM_P2
2024/01/07 00:01:47;;;;;;;2.92;1.92;;;19.30;99.90;;;;;;5013948;28;20394;-55
2024/01/07 00:04:15;;;;;;;2.10;1.20;;;19.30;99.90;;;;;;5014008;28;20109;-54
2024/01/07 00:06:41;;;;;;;2.92;1.50;;;19.30;99.90;;;;;;5014088;28;20018;-59
2024/01/07 00:09:06;;;;;;;2.70;1.58;;;19.30;99.90;;;;;;5014035;28;20379;-52
2024/01/07 00:11:32;;;;;;;2.47;1.50;;;19.30;99.90;;;;;;5012605;28;20374;-52
2024/01/07 00:13:58;;;;;;;1.63;1.38;;;19.30;99.90;;;;;;5012487;28;20026;-53
2024/01/07 00:16:24;;;;;;;3.63;1.70;;;19.20;99.90;;;;;;5013823;28;20052;-53
2024/01/07 00:18:49;;;;;;;2.13;1.55;;;19.20;99.90;;;;;;5012409;28;20037;-53
2024/01/07 00:21:15;;;;;;;2.50;1.40;;;19.20;99.90;;;;;;5012407;28;20026;-53
2024/01/07 00:23:41;;;;;;;2.17;1.27;;;19.20;99.90;;;;;;5012390;28;20076;-53
2024/01/07 00:26:08;;;;;;;1.88;1.30;;;19.20;99.90;;;;;;5013834;28;20021;-54
2024/01/07 00:28:34;;;;;;;2.88;1.33;;;19.20;99.90;;;;;;5013500;28;20034;-53
2024/01/07 00:31:00;;;;;;;2.88;1.50;;;19.20;99.90;;;;;;5013491;28;20022;-54
2024/01/07 00:33:25;;;;;;;2.33;1.30;;;19.20;99.90;;;;;;5013367;28;20026;-53
2024/01/07 00:35:51;;;;;;;1.48;1.15;;;19.20;99.90;;;;;;5013303;28;20018;-53
2024/01/07 00:38:17;;;;;;;4.50;1.88;;;19.20;99.90;;;;;;5012125;28;20115;-53
2024/01/07 00:40:43;;;;;;;2.72;1.48;;;19.20;99.90;;;;;;5013421;28;20030;-53
2024/01/07 00:43:09;;;;;;;1.48;1.10;;;19.20;99.90;;;;;;5013427;28;20026;-53
2024/01/07 00:45:35;;;;;;;1.92;1.50;;;19.10;99.90;;;;;;5013165;28;20024;-53
2024/01/07 00:48:01;;;;;;;2.17;1.40;;;19.10;99.90;;;;;;5013350;28;20022;-53
2024/01/07 00:50:27;;;;;;;3.40;1.48;;;19.10;99.90;;;;;;5012071;28;20033;-53
2024/01/07 00:52:52;;;;;;;2.20;1.17;;;19.10;99.90;;;;;;5011993;28;20079;-53
2024/01/07 00:55:18;;;;;;;1.83;1.25;;;19.10;99.90;;;;;;5013105;28;20053;-54
2024/01/07 00:57:44;;;;;;;1.73;1.10;;;19.10;99.90;;;;;;5012819;28;20034;-53
2024/01/07 01:00:10;;;;;;;1.50;1.20;;;19.10;99.90;;;;;;5027017;23;20520;-54
2024/01/07 01:02:37;;;;;;;3.08;1.40;;;19.10;99.90;;;;;;5051148;28;20457;-53
2024/01/07 01:05:04;;;;;;;1.80;1.20;;;19.10;99.90;;;;;;5051502;28;20029;-51
2024/01/07 01:07:30;;;;;;;2.53;1.20;;;19.10;99.90;;;;;;5051243;28;20349;-52
2024/01/07 01:09:56;;;;;;;1.63;0.95;;;19.10;99.90;;;;;;5052417;28;20586;-52
2024/01/07 01:12:21;;;;;;;3.53;1.63;;;19.10;99.90;;;;;;5034696;28;20031;-53
2024/01/07 01:14:47;;;;;;;1.95;1.10;;;19.00;99.90;;;;;;5052424;28;20369;-52
2024/01/07 01:17:13;;;;;;;2.15;1.45;;;19.00;99.90;;;;;;5052529;28;20100;-54
2024/01/07 01:19:39;;;;;;;2.20;1.40;;;19.00;99.90;;;;;;5052543;28;20090;-53
2024/01/07 01:22:05;;;;;;;2.45;1.25;;;19.00;99.90;;;;;;5052384;28;20100;-54
2024/01/07 01:24:30;;;;;;;2.63;1.33;;;19.00;99.90;;;;;;5050960;28;20021;-54
2024/01/07 01:26:56;;;;;;;2.05;1.17;;;19.00;99.90;;;;;;5050881;28;20526;-52
2024/01/07 01:29:22;;;;;;;1.73;1.10;;;19.00;99.90;;;;;;5052314;28;20400;-52
2024/01/07 01:31:48;;;;;;;1.27;0.85;;;19.00;99.90;;;;;;5051050;28;20025;-52
2024/01/07 01:34:13;;;;;;;2.20;0.90;;;18.90;99.90;;;;;;5052485;28;20025;-58
2024/01/07 01:36:39;;;;;;;2.33;1.27;;;18.90;99.90;;;;;;5050946;28;20426;-52
2024/01/07 01:39:05;;;;;;;2.25;1.20;;;18.90;99.90;;;;;;5052043;28;20044;-52
2024/01/07 01:41:31;;;;;;;1.67;1.00;;;18.90;99.90;;;;;;5052028;28;20021;-52
2024/01/07 01:43:58;;;;;;;2.50;1.45;;;18.90;99.90;;;;;;5052114;28;20449;-52
2024/01/07 01:46:24;;;;;;;1.90;1.05;;;18.90;99.90;;;;;;5052195;28;20112;-52
2024/01/07 01:48:50;;;;;;;4.05;1.40;;;18.90;99.90;;;;;;5051134;28;20033;-52
2024/01/07 01:51:17;;;;;;;2.40;1.13;;;18.90;99.90;;;;;;5052003;28;20610;-52
2024/01/07 01:53:44;;;;;;;2.10;1.00;;;18.90;99.90;;;;;;5052357;28;20423;-53
2024/01/07 01:56:10;;;;;;;1.88;1.10;;;18.80;99.90;;;;;;5052288;28;20488;-53
2024/01/07 01:58:37;;;;;;;1.45;1.25;;;18.80;99.90;;;;;;5051990;28;20111;-53
2024/01/07 02:01:03;;;;;;;1.77;1.00;;;18.80;99.90;;;;;;5052201;28;20038;-52
2024/01/07 02:03:29;;;;;;;1.67;1.00;;;18.80;99.90;;;;;;5051983;28;20025;-52
2024/01/07 02:05:56;;;;;;;1.60;1.13;;;18.80;99.90;;;;;;5051913;28;20086;-53
2024/01/07 02:08:23;;;;;;;1.65;0.90;;;18.80;99.90;;;;;;5050640;28;20029;-53
2024/01/07 02:10:49;;;;;;;1.45;0.80;;;18.80;99.90;;;;;;5052758;28;20029;-52
2024/01/07 02:13:15;;;;;;;2.00;1.10;;;18.80;99.90;;;;;;5055990;28;20154;-53
2024/01/07 02:15:40;;;;;;;2.80;1.08;;;18.80;99.90;;;;;;5055933;28;20021;-53
2024/01/07 02:18:06;;;;;;;2.70;1.42;;;18.80;99.90;;;;;;5055604;28;20428;-52
2024/01/07 02:20:32;;;;;;;2.15;0.90;;;18.80;99.90;;;;;;5055667;28;20033;-52
2024/01/07 02:22:58;;;;;;;2.95;1.05;;;18.70;99.90;;;;;;5055623;28;20496;-53
2024/01/07 02:25:24;;;;;;;1.40;1.20;;;18.80;99.90;;;;;;5055595;28;20026;-52
2024/01/07 02:27:50;;;;;;;1.98;0.80;;;18.70;99.90;;;;;;5055512;28;20100;-53
2024/01/07 02:30:17;;;;;;;1.90;0.80;;;18.70;99.90;;;;;;5055822;28;20059;-52
2024/01/07 02:32:43;;;;;;;1.75;0.73;;;18.70;99.90;;;;;;5055839;28;20013;-52
2024/01/07 02:35:09;;;;;;;2.63;1.30;;;18.70;99.90;;;;;;5055490;28;20350;-52
2024/01/07 02:37:34;;;;;;;1.70;1.10;;;18.70;99.90;;;;;;5055298;28;20073;-52
2024/01/07 02:40:00;;;;;;;1.92;1.13;;;18.70;99.90;;;;;;5054248;28;20017;-53
2024/01/07 02:42:26;;;;;;;2.28;1.23;;;18.70;99.90;;;;;;5055314;28;20083;-53
2024/01/07 02:44:52;;;;;;;1.60;0.95;;;18.70;99.90;;;;;;5055306;28;20097;-53
2024/01/07 02:47:18;;;;;;;3.00;1.00;;;18.70;99.90;;;;;;5055254;28;20104;-52
2024/01/07 02:49:43;;;;;;;1.48;0.90;;;18.60;99.90;;;;;;5054162;28;20028;-53
2024/01/07 02:52:09;;;;;;;1.30;0.85;;;18.60;99.90;;;;;;5055037;28;20017;-53
2024/01/07 02:54:35;;;;;;;1.70;1.00;;;18.60;99.90;;;;;;5055101;28;20025;-53
2024/01/07 02:57:01;;;;;;;2.50;0.90;;;18.60;99.90;;;;;;5055037;28;20077;-52
2024/01/07 02:59:27;;;;;;;1.63;1.20;;;18.60;99.90;;;;;;5055085;28;20036;-53
2024/01/07 03:01:52;;;;;;;1.42;1.00;;;18.60;99.90;;;;;;5038775;22;20058;-47
2024/01/07 03:04:18;;;;;;;1.08;0.95;;;18.60;99.90;;;;;;5014010;28;20021;-48
2024/01/07 03:06:44;;;;;;;1.33;0.85;;;18.60;99.90;;;;;;5015447;28;20093;-47
2024/01/07 03:09:12;;;;;;;6.10;1.40;;;18.60;99.90;;;;;;5013846;28;20030;-48
2024/01/07 03:11:41;;;;;;;1.85;1.15;;;18.60;99.90;;;;;;5015129;28;20469;-49
2024/01/07 03:14:07;;;;;;;2.53;1.25;;;18.60;99.90;;;;;;5013754;28;20065;-48
2024/01/07 03:16:33;;;;;;;4.10;1.15;;;18.60;99.90;;;;;;5015013;28;20050;-48
2024/01/07 03:18:59;;;;;;;2.33;1.38;;;18.60;99.90;;;;;;5014749;28;20037;-47
2024/01/07 03:21:25;;;;;;;1.85;1.10;;;18.60;99.90;;;;;;5013645;28;20037;-48
2024/01/07 03:23:51;;;;;;;2.75;1.30;;;18.50;99.90;;;;;;5014906;28;20026;-48
2024/01/07 03:26:19;;;;;;;1.83;1.45;;;18.50;99.90;;;;;;5014943;28;20121;-48
2024/01/07 03:28:45;;;;;;;1.42;0.90;;;18.50;99.90;;;;;;5014608;28;20101;-48
2024/01/07 03:31:16;;;;;;;1.98;1.00;;;18.50;99.90;;;;;;5014854;28;20045;-48
2024/01/07 03:33:42;;;;;;;1.35;1.00;;;18.50;99.90;;;;;;5014558;28;20026;-51
2024/01/07 03:36:12;;;;;;;1.75;0.75;;;18.50;99.90;;;;;;5014546;28;20018;-48
2024/01/07 03:38:38;;;;;;;1.95;1.20;;;18.50;99.90;;;;;;5014540;28;20037;-48
2024/01/07 03:41:04;;;;;;;1.88;0.73;;;18.50;99.90;;;;;;5014512;28;20032;-48
2024/01/07 03:43:31;;;;;;;2.17;0.90;;;18.50;99.90;;;;;;5014289;28;20022;-49
2024/01/07 03:45:56;;;;;;;1.63;0.90;;;18.50;99.90;;;;;;5014461;28;20046;-48
2024/01/07 03:48:22;;;;;;;1.40;1.00;;;18.50;99.90;;;;;;5014544;28;20456;-48
2024/01/07 03:50:48;;;;;;;1.77;1.00;;;18.50;99.90;;;;;;5014389;28;20072;-49
2024/01/07 03:53:15;;;;;;;1.45;0.77;;;18.50;99.90;;;;;;5014306;28;20075;-48
2024/01/07 03:55:41;;;;;;;1.25;0.82;;;18.50;99.90;;;;;;5014204;28;20420;-48
2024/01/07 03:58:07;;;;;;;1.00;0.88;;;18.50;99.90;;;;;;5014158;28;20116;-48
2024/01/07 04:00:34;;;;;;;1.95;1.02;;;18.50;99.90;;;;;;5025610;23;20233;-53
2024/01/07 04:03:02;;;;;;;1.70;0.90;;;18.50;99.90;;;;;;5014325;28;20041;-53
2024/01/07 04:05:29;;;;;;;;;;;18.50;99.90;;;;;;5014435;28;20029;-53
2024/01/07 04:07:55;;;;;;;1.88;1.15;;;18.40;99.90;;;;;;5012701;28;19905;-54
2024/01/07 04:10:20;;;;;;;1.60;0.90;;;18.50;99.90;;;;;;5014267;28;20359;-54
2024/01/07 04:12:47;;;;;;;2.53;1.20;;;18.40;99.90;;;;;;5013978;28;20022;-54
2024/01/07 04:15:13;;;;;;;0.93;0.90;;;18.40;99.90;;;;;;5013760;28;20088;-51
2024/01/07 04:17:38;;;;;;;1.25;0.75;;;18.50;99.90;;;;;;5013573;28;20103;-51
2024/01/07 04:20:07;;;;;;;3.90;1.10;;;18.40;99.90;;;;;;5013790;28;20378;-51
2024/01/07 04:22:33;;;;;;;1.10;0.77;;;18.40;99.90;;;;;;5013785;28;20030;-51
2024/01/07 04:24:59;;;;;;;1.33;0.93;;;18.40;99.90;;;;;;5013685;28;20026;-51
2024/01/07 04:27:25;;;;;;;1.83;1.00;;;18.40;99.90;;;;;;5013757;28;20742;-51
2024/01/07 04:29:51;;;;;;;2.58;1.10;;;18.40;99.90;;;;;;5013748;28;20425;-51
2024/01/07 04:32:17;;;;;;;2.47;1.10;;;18.40;99.90;;;;;;5013305;28;20048;-51
2024/01/07 04:34:43;;;;;;;2.97;1.70;;;18.40;99.90;;;;;;4995746;28;20117;-51
2024/01/07 04:37:09;;;;;;;2.20;1.00;;;18.40;99.90;;;;;;5013431;28;20440;-51
2024/01/07 04:39:34;;;;;;;1.85;1.05;;;18.40;99.90;;;;;;5013486;28;20037;-51
2024/01/07 04:42:00;;;;;;;3.08;0.98;;;18.40;99.90;;;;;;5013605;28;20076;-52
2024/01/07 04:44:26;;;;;;;1.85;0.90;;;18.40;99.90;;;;;;5013295;28;20045;-52
2024/01/07 04:46:52;;;;;;;1.05;0.95;;;18.40;99.90;;;;;;5013793;28;20037;-52
2024/01/07 04:49:17;;;;;;;1.90;1.05;;;18.40;99.90;;;;;;5013219;28;20021;-52
2024/01/07 04:51:43;;;;;;;1.90;0.80;;;18.40;99.90;;;;;;5009528;28;20024;-52
2024/01/07 04:54:09;;;;;;;1.25;0.80;;;18.40;99.90;;;;;;4993735;28;20065;-52
2024/01/07 04:56:35;;;;;;;1.42;0.80;;;18.40;99.90;;;;;;4991947;28;20027;-52
2024/01/07 04:59:00;;;;;;;1.60;1.10;;;18.40;99.90;;;;;;4992639;28;20031;-52
2024/01/07 05:01:26;;;;;;;2.40;0.95;;;18.40;99.90;;;;;;4992579;28;20383;-52
2024/01/07 05:03:52;;;;;;;2.42;1.48;;;18.40;99.90;;;;;;4993571;28;20034;-52
2024/01/07 05:06:18;;;;;;;1.33;1.00;;;18.40;99.90;;;;;;4993390;28;20033;-52
2024/01/07 05:08:43;;;;;;;1.15;1.00;;;18.40;99.90;;;;;;4993351;28;20049;-52
2024/01/07 05:11:10;;;;;;;3.83;1.27;;;18.40;99.90;;;;;;4993385;28;20022;-52
2024/01/07 05:13:36;;;;;;;4.25;0.90;;;18.40;99.90;;;;;;4993266;28;20029;-52
2024/01/07 05:16:02;;;;;;;1.70;0.63;;;18.40;99.90;;;;;;4993211;28;20022;-53
2024/01/07 05:18:28;;;;;;;1.58;0.85;;;18.40;99.90;;;;;;4993205;28;20553;-52
2024/01/07 05:20:54;;;;;;;4.38;0.90;;;18.40;99.90;;;;;;4993278;28;20038;-52
2024/01/07 05:23:20;;;;;;;1.35;0.70;;;18.40;99.90;;;;;;4993077;28;20027;-52
2024/01/07 05:25:46;;;;;;;1.30;0.73;;;18.40;99.90;;;;;;4993062;28;20390;-52
2024/01/07 05:28:13;;;;;;;1.15;0.80;;;18.40;99.90;;;;;;4993077;28;20058;-52
2024/01/07 05:30:41;;;;;;;1.50;1.02;;;18.40;99.90;;;;;;4993064;28;20070;-52
2024/01/07 05:33:06;;;;;;;2.00;1.00;;;18.40;99.90;;;;;;4993062;28;20532;-52
2024/01/07 05:35:32;;;;;;;1.73;1.00;;;18.40;99.90;;;;;;4992963;28;20038;-52
2024/01/07 05:37:58;;;;;;;1.65;0.80;;;18.40;99.90;;;;;;4993096;28;20039;-52
2024/01/07 05:40:24;;;;;;;1.38;0.98;;;18.40;99.90;;;;;;4992980;28;20030;-52
2024/01/07 05:42:50;;;;;;;1.63;1.05;;;18.40;99.90;;;;;;4992789;28;20494;-52
2024/01/07 05:45:15;;;;;;;3.40;0.80;;;18.40;99.90;;;;;;4992090;28;20026;-51
2024/01/07 05:47:41;;;;;;;1.67;1.00;;;18.40;99.90;;;;;;4992830;28;20053;-52
2024/01/07 05:50:08;;;;;;;1.15;0.80;;;18.40;99.90;;;;;;4992713;28;20029;-52
2024/01/07 05:52:34;;;;;;;1.35;0.93;;;18.40;99.90;;;;;;4992854;28;20026;-52
2024/01/07 05:55:00;;;;;;;1.05;0.68;;;18.40;99.90;;;;;;4992814;28;20109;-52
2024/01/07 05:57:26;;;;;;;1.10;0.80;;;18.40;99.90;;;;;;4992810;28;20102;-52
2024/01/07 05:59:52;;;;;;;0.75;0.68;;;18.40;99.90;;;;;;4992696;28;20035;-52
2024/01/07 06:02:18;;;;;;;2.05;0.98;;;18.40;99.90;;;;;;4992617;28;20054;-52
2024/01/07 06:04:44;;;;;;;1.55;0.75;;;18.30;99.90;;;;;;4992783;28;20041;-52
2024/01/07 06:07:09;;;;;;;2.75;1.05;;;18.30;99.90;;;;;;4992732;28;20077;-52
2024/01/07 06:09:35;;;;;;;1.27;0.90;;;18.30;99.90;;;;;;4992685;28;20035;-52
2024/01/07 06:12:01;;;;;;;0.90;0.63;;;18.30;99.90;;;;;;4992617;28;20105;-51
2024/01/07 06:14:27;;;;;;;1.40;1.02;;;18.30;99.90;;;;;;4992804;28;20027;-52
2024/01/07 06:16:53;;;;;;;1.58;0.75;;;18.30;99.90;;;;;;4992644;28;20138;-52
2024/01/07 06:19:19;;;;;;;1.67;0.93;;;18.30;99.90;;;;;;4992483;28;20541;-52
2024/01/07 06:21:45;;;;;;;1.33;1.00;;;18.30;99.90;;;;;;4992552;28;20482;-52
2024/01/07 06:24:11;;;;;;;2.47;1.02;;;18.30;99.90;;;;;;4991219;28;20043;-52
2024/01/07 06:26:37;;;;;;;0.93;0.60;;;18.30;99.90;;;;;;4992449;28;20034;-52
2024/01/07 06:29:03;;;;;;;1.20;0.90;;;18.30;99.90;;;;;;4992394;28;20018;-51
2024/01/07 06:31:29;;;;;;;1.10;0.70;;;18.30;99.90;;;;;;4992599;28;20030;-52
2024/01/07 06:33:57;;;;;;;1.15;0.73;;;18.30;99.90;;;;;;4991300;28;20027;-51
2024/01/07 06:36:25;;;;;;;1.55;0.75;;;18.30;99.90;;;;;;4992511;28;20054;-52
2024/01/07 06:38:50;;;;;;;1.38;0.77;;;18.30;99.90;;;;;;4991095;28;20065;-52
2024/01/07 06:41:16;;;;;;;0.85;0.60;;;18.30;99.90;;;;;;4992376;28;20031;-53
2024/01/07 06:43:42;;;;;;;1.63;1.08;;;18.30;99.90;;;;;;4992424;28;20454;-52
2024/01/07 06:46:08;;;;;;;0.73;0.60;;;18.30;99.90;;;;;;4992313;28;20105;-52
2024/01/07 06:48:34;;;;;;;1.20;0.52;;;18.30;99.90;;;;;;4992214;28;20089;-51
2024/01/07 06:51:00;;;;;;;1.23;0.73;;;18.30;99.90;;;;;;4991170;28;20022;-52
2024/01/07 06:53:25;;;;;;;1.00;0.73;;;18.30;99.90;;;;;;4992046;28;20532;-52
2024/01/07 06:55:51;;;;;;;1.02;0.90;;;18.30;99.90;;;;;;4992569;28;20092;-52
2024/01/07 06:58:17;;;;;;;1.08;0.73;;;18.30;99.90;;;;;;4995568;28;20066;-52
2024/01/07 07:00:43;;;;;;;0.82;0.63;;;18.30;99.90;;;;;;4995510;28;20035;-52
2024/01/07 07:03:08;;;;;;;0.90;0.68;;;18.30;99.90;;;;;;4995632;28;20038;-52
2024/01/07 07:05:34;;;;;;;1.50;0.90;;;18.20;99.90;;;;;;4995558;28;20102;-51
2024/01/07 07:08:01;;;;;;;2.47;0.60;;;18.20;99.90;;;;;;4995733;28;20366;-52
2024/01/07 07:10:27;;;;;;;1.38;0.70;;;18.20;99.90;;;;;;4995435;28;20467;-52
2024/01/07 07:12:52;;;;;;;2.70;1.02;;;18.20;99.90;;;;;;4995453;28;20045;-52
2024/01/07 07:15:18;;;;;;;1.88;1.23;;;18.20;99.90;;;;;;4995440;28;20026;-52
2024/01/07 07:17:44;;;;;;;1.02;0.90;;;18.20;99.90;;;;;;4995254;28;20040;-52
2024/01/07 07:20:11;;;;;;;1.67;0.40;;;18.20;99.90;;;;;;4995732;28;20026;-51
2024/01/07 07:22:37;;;;;;;1.43;0.90;;;18.20;99.90;;;;;;4995357;28;20032;-51
2024/01/07 07:25:03;;;;;;;1.27;0.90;;;18.20;99.90;;;;;;4995378;28;20105;-51
2024/01/07 07:27:29;;;;;;;2.13;0.80;;;18.20;99.90;;;;;;4995366;28;20022;-51
2024/01/07 07:29:55;;;;;;;1.38;1.00;;;18.20;99.90;;;;;;4995130;28;20034;-52
2024/01/07 07:32:21;;;;;;;1.75;0.90;;;18.20;99.90;;;;;;4995119;28;20110;-52
2024/01/07 07:34:47;;;;;;;0.95;0.82;;;18.20;99.90;;;;;;4995096;28;20109;-52
2024/01/07 07:37:13;;;;;;;2.15;0.80;;;18.20;99.90;;;;;;4995228;28;20018;-52
2024/01/07 07:39:39;;;;;;;3.33;1.00;;;18.20;99.90;;;;;;4994825;28;20069;-52
2024/01/07 07:42:05;;;;;;;1.10;0.90;;;18.20;99.90;;;;;;4995097;28;20046;-52
2024/01/07 07:44:31;;;;;;;0.80;0.60;;;18.20;99.90;;;;;;4995092;28;20030;-52
2024/01/07 07:46:56;;;;;;;1.65;1.00;;;18.20;99.90;;;;;;4994934;28;20027;-52
2024/01/07 07:49:22;;;;;;;1.33;1.00;;;18.10;99.90;;;;;;4994881;28;20061;-51
2024/01/07 07:51:48;;;;;;;1.55;0.90;;;18.20;99.90;;;;;;5009892;28;20096;-52
2024/01/07 07:54:14;;;;;;;1.55;0.85;;;18.20;99.90;;;;;;4994686;28;20180;-52
2024/01/07 07:56:39;;;;;;;1.73;1.08;;;18.10;99.90;;;;;;4994823;28;20037;-53
2024/01/07 07:59:05;;;;;;;1.70;0.98;;;18.10;99.90;;;;;;4994937;28;20364;-52
2024/01/07 08:01:31;;;;;;;3.90;1.20;;;18.10;99.90;;;;;;4994607;28;20050;-52
2024/01/07 08:03:57;;;;;;;1.60;1.00;;;18.20;99.90;;;;;;4994543;28;20077;-52
2024/01/07 08:06:22;;;;;;;1.70;1.10;;;18.20;99.90;;;;;;4994618;28;20030;-52
2024/01/07 08:08:48;;;;;;;1.42;0.88;;;18.20;99.90;;;;;;4993649;28;20114;-53
2024/01/07 08:11:14;;;;;;;2.35;1.35;;;18.20;99.90;;;;;;4994708;28;20026;-52
2024/01/07 08:13:41;;;;;;;1.67;0.80;;;18.20;99.90;;;;;;4994432;28;20045;-52
2024/01/07 08:16:07;;;;;;;0.95;0.88;;;18.20;99.90;;;;;;4994555;28;20027;-52
2024/01/07 08:18:33;;;;;;;1.95;1.10;;;18.30;99.90;;;;;;4994403;28;20498;-53
2024/01/07 08:20:59;;;;;;;1.60;0.93;;;18.30;99.90;;;;;;4994214;28;20106;-53
2024/01/07 08:23:25;;;;;;;0.95;0.70;;;18.30;99.90;;;;;;4994192;28;20026;-53
2024/01/07 08:25:53;;;;;;;1.63;1.02;;;18.30;99.90;;;;;;4994227;28;20072;-53
2024/01/07 08:28:20;;;;;;;1.02;0.88;;;18.40;99.90;;;;;;4994150;28;20094;-53
2024/01/07 08:30:46;;;;;;;1.50;1.00;;;18.40;99.90;;;;;;4994083;28;20096;-53
2024/01/07 08:33:12;;;;;;;1.77;1.10;;;18.40;99.90;;;;;;4993974;28;20268;-53
2024/01/07 08:35:38;;;;;;;2.15;1.40;;;18.50;99.90;;;;;;4994075;28;20025;-53
2024/01/07 08:38:04;;;;;;;1.67;1.25;;;18.50;99.90;;;;;;4994144;28;20386;-53
2024/01/07 08:40:31;;;;;;;1.33;0.90;;;18.50;99.90;;;;;;4993866;28;20033;-52
2024/01/07 08:42:56;;;;;;;1.38;0.80;;;18.60;99.90;;;;;;4993755;28;20029;-52
2024/01/07 08:45:22;;;;;;;2.08;1.45;;;18.60;99.90;;;;;;4993686;28;20385;-53
2024/01/07 08:47:48;;;;;;;1.45;1.08;;;18.60;99.90;;;;;;4993720;28;20026;-52
2024/01/07 08:50:14;;;;;;;1.52;1.15;;;18.70;99.90;;;;;;4993516;28;20026;-52
2024/01/07 08:52:40;;;;;;;2.53;1.30;;;18.70;99.90;;;;;;4993498;28;20040;-53
2024/01/07 08:55:09;;;;;;;2.42;1.35;;;18.80;99.90;;;;;;4993794;28;20097;-52
2024/01/07 08:57:36;;;;;;;1.55;1.00;;;18.80;99.90;;;;;;4993657;28;20479;-53
2024/01/07 09:00:02;;;;;;;1.80;1.30;;;18.80;99.90;;;;;;4976132;28;20486;-53
2024/01/07 09:02:30;;;;;;;1.50;1.20;;;18.90;99.90;;;;;;4993410;28;20061;-53
2024/01/07 09:04:57;;;;;;;1.83;1.20;;;18.90;99.90;;;;;;4993306;28;20026;-53
2024/01/07 09:07:25;;;;;;;1.35;1.13;;;18.90;99.90;;;;;;4993317;28;20046;-53
2024/01/07 09:09:51;;;;;;;1.15;1.05;;;18.90;99.90;;;;;;4993352;28;20085;-53
2024/01/07 09:12:17;;;;;;;2.45;1.65;;;19.00;99.90;;;;;;4993318;28;20080;-53
2024/01/07 09:14:43;;;;;;;1.50;1.13;;;19.10;99.90;;;;;;4993370;28;20038;-53
2024/01/07 09:17:08;;;;;;;1.88;1.40;;;19.10;99.90;;;;;;4993411;28;20540;-53
2024/01/07 09:19:34;;;;;;;1.80;1.27;;;19.10;99.90;;;;;;4993098;28;20110;-53
2024/01/07 09:22:00;;;;;;;1.98;1.38;;;19.10;99.90;;;;;;4993213;28;20038;-53
2024/01/07 09:24:26;;;;;;;1.48;1.20;;;19.10;99.90;;;;;;4993059;28;20025;-53
2024/01/07 09:26:52;;;;;;;2.72;1.40;;;19.20;99.90;;;;;;4993036;28;20022;-53
2024/01/07 09:29:18;;;;;;;2.72;1.40;;;19.20;99.90;;;;;;4992979;28;20022;-53
2024/01/07 09:31:44;;;;;;;1.70;1.40;;;19.30;99.90;;;;;;4993041;28;20038;-53
2024/01/07 09:34:09;;;;;;;2.42;1.85;;;19.30;99.90;;;;;;4993203;28;20062;-53
2024/01/07 09:36:36;;;;;;;2.13;1.20;;;19.40;99.90;;;;;;4992894;28;20030;-53
2024/01/07 09:39:04;;;;;;;3.08;1.15;;;19.40;99.90;;;;;;4992942;28;20038;-53
2024/01/07 09:41:30;;;;;;;1.52;1.23;;;19.40;99.90;;;;;;4992885;28;20029;-53
2024/01/07 09:43:58;;;;;;;2.13;1.20;;;19.50;99.90;;;;;;4992869;28;20072;-54
2024/01/07 09:46:25;;;;;;;3.35;1.40;;;19.50;99.90;;;;;;4992728;28;20035;-53
2024/01/07 09:48:51;;;;;;;1.75;1.02;;;19.60;99.90;;;;;;4992857;28;20076;-53
2024/01/07 09:51:22;;;;;;;2.00;1.33;;;19.60;99.90;;;;;;4992784;28;20113;-53
2024/01/07 09:53:51;;;;;;;2.17;1.33;;;19.60;99.90;;;;;;4992834;28;20022;-54
2024/01/07 09:56:28;;;;;;;2.70;1.30;;;19.70;99.90;;;;;;4992798;28;20031;-53
2024/01/07 09:58:54;;;;;;;2.95;1.23;;;19.80;99.90;;;;;;4992651;28;20085;-54
2024/01/07 10:01:20;;;;;;;1.92;1.35;;;19.80;99.90;;;;;;4992598;28;20046;-53
2024/01/07 10:03:46;;;;;;;2.63;1.80;;;19.90;99.90;;;;;;4992709;28;20042;-53
2024/01/07 10:06:12;;;;;;;2.38;1.65;;;19.90;99.90;;;;;;4993006;28;20022;-53
2024/01/07 10:08:39;;;;;;;2.10;1.35;;;19.90;99.90;;;;;;4993017;28;20483;-53
2024/01/07 10:11:04;;;;;;;2.17;1.35;;;20.00;99.90;;;;;;4992585;28;20471;-54
2024/01/07 10:13:32;;;;;;;4.00;1.67;;;20.00;99.90;;;;;;4992574;28;20018;-54
2024/01/07 10:15:58;;;;;;;3.03;1.48;;;20.10;99.90;;;;;;4992722;28;20018;-54
2024/01/07 10:18:24;;;;;;;1.65;1.35;;;20.20;99.90;;;;;;4992574;28;20057;-53
2024/01/07 10:20:51;;;;;;;2.97;1.90;;;20.20;99.90;;;;;;4992659;28;20073;-53
2024/01/07 10:23:20;;;;;;;2.10;1.25;;;20.20;99.90;;;;;;4992629;28;20612;-54
2024/01/07 10:25:47;;;;;;;1.90;1.55;;;20.30;99.90;;;;;;4992709;28;20389;-53
2024/01/07 10:28:14;;;;;;;3.72;1.55;;;20.40;99.90;;;;;;4992799;28;20022;-53
2024/01/07 10:30:40;;;;;;;2.53;1.92;;;20.40;99.90;;;;;;4992931;28;20034;-53
2024/01/07 10:33:08;;;;;;;2.40;1.67;;;20.50;99.90;;;;;;4996288;28;20383;-53
2024/01/07 10:35:35;;;;;;;1.65;1.25;;;20.50;99.90;;;;;;4996185;28;20080;-53
2024/01/07 10:38:02;;;;;;;2.25;1.58;;;20.60;99.90;;;;;;4996054;28;20033;-53
2024/01/07 10:40:30;;;;;;;2.17;1.20;;;20.60;99.90;;;;;;4995007;28;20029;-53
2024/01/07 10:42:56;;;;;;;1.95;1.38;;;20.70;99.90;;;;;;4995921;28;20033;-54
2024/01/07 10:45:22;;;;;;;3.13;1.30;;;20.70;99.90;;;;;;5011390;28;20371;-54
2024/01/07 10:47:53;;;;;;;2.22;1.25;;;20.70;99.90;;;;;;4994683;28;20030;-53
2024/01/07 10:50:19;;;;;;;2.38;1.67;;;20.80;99.90;;;;;;4995944;28;20030;-54
2024/01/07 10:52:58;;;;;;;3.42;1.88;;;20.80;99.90;;;;;;4995802;28;20025;-54
2024/01/07 10:55:26;;;;;;;2.38;1.83;;;20.90;99.90;;;;;;4994741;28;20486;-54
2024/01/07 10:57:55;;;;;;;3.15;1.85;;;20.90;99.90;;;;;;4995750;28;20022;-53
2024/01/07 11:00:21;;;;;;;4.40;1.95;;;20.90;99.90;;;;;;5010692;28;20057;-54
2024/01/07 11:03:24;;;;;;;2.42;1.83;;;21.00;99.90;;;;;;4995735;28;20546;-54
2024/01/07 11:05:59;;;;;;;6.20;1.80;;;21.00;99.90;;;;;;4993470;28;20379;-53
2024/01/07 11:08:37;;;;;;;3.85;2.15;;;21.10;99.90;;;;;;4995758;28;20490;-52
2024/01/07 11:11:21;;;;;;;5.60;1.60;;;21.10;99.90;;;;;;4995437;28;20034;-53
2024/01/07 11:13:46;;;;;;;5.82;1.92;;;21.20;99.90;;;;;;4995547;28;20050;-53
2024/01/07 11:16:12;;;;;;;5.22;1.65;;;21.20;99.90;;;;;;4995648;28;20061;-53
2024/01/07 11:18:40;;;;;;;3.65;1.92;;;21.30;99.90;;;;;;4995309;28;20046;-53
2024/01/07 11:21:06;;;;;;;1.80;1.38;;;21.30;99.90;;;;;;4995173;28;20026;-54
2024/01/07 11:23:39;;;;;;;3.15;1.50;;;21.30;99.90;;;;;;5010683;28;20392;-53
2024/01/07 11:26:08;;;;;;;3.65;2.17;;;21.40;99.90;;;;;;4995342;28;20077;-53
2024/01/07 11:28:53;;;;;;;2.63;1.58;;;21.40;99.90;;;;;;4995154;28;20049;-53
2024/01/07 11:31:20;;;;;;;3.00;2.17;;;21.50;99.90;;;;;;4995041;28;20036;-53
2024/01/07 11:33:48;;;;;;;3.17;1.50;;;21.50;99.90;;;;;;4995445;28;20018;-53
2024/01/07 11:36:15;;;;;;;3.90;2.08;;;21.60;99.90;;;;;;4994111;28;20027;-53
2024/01/07 11:38:50;;;;;;;2.22;1.50;;;21.60;99.90;;;;;;4994983;28;20080;-53
2024/01/07 11:41:17;;;;;;;5.85;1.63;;;21.60;99.90;;;;;;4995203;28;20450;-53
2024/01/07 11:43:59;;;;;;;2.83;1.75;;;21.70;99.90;;;;;;4993972;28;20089;-53
2024/01/07 11:46:28;;;;;;;2.45;1.70;;;21.70;99.90;;;;;;4994899;28;20035;-53
2024/01/07 11:48:59;;;;;;;4.13;1.50;;;21.70;99.90;;;;;;4994781;28;20031;-53
2024/01/07 11:51:30;;;;;;;1.63;1.20;;;21.80;99.90;;;;;;4994811;28;20027;-53
2024/01/07 11:53:57;;;;;;;3.30;1.73;;;21.80;99.90;;;;;;4994868;28;20048;-53
2024/01/07 11:56:24;;;;;;;1.90;1.43;;;21.80;99.90;;;;;;4994891;28;20546;-55
2024/01/07 11:58:50;;;;;;;1.88;1.10;;;21.90;99.90;;;;;;4993259;28;20372;-53
2024/01/07 12:01:16;;;;;;;4.28;1.98;;;21.90;99.90;;;;;;4994658;28;20453;-53
2024/01/07 12:03:46;;;;;;;3.17;1.40;;;21.90;99.90;;;;;;4994687;28;20026;-53
2024/01/07 12:06:15;;;;;;;4.43;1.70;;;22.00;99.90;;;;;;4994512;28;20018;-53
2024/01/07 12:08:42;;;;;;;3.00;1.65;;;22.00;99.90;;;;;;4994153;28;20097;-52
2024/01/07 12:11:12;;;;;;;3.78;1.50;;;22.10;99.90;;;;;;4994367;28;20018;-53
2024/01/07 12:13:38;;;;;;;6.28;2.25;;;22.10;99.90;;;;;;4994338;28;20072;-52
2024/01/07 12:16:05;;;;;;;1.63;1.40;;;22.10;99.90;;;;;;4994348;28;20022;-54
2024/01/07 12:18:31;;;;;;;3.90;1.50;;;22.10;99.90;;;;;;4994093;28;20034;-54
2024/01/07 12:20:59;;;;;;;4.25;1.98;;;22.20;99.90;;;;;;4994060;28;20106;-54
2024/01/07 12:23:26;;;;;;;2.30;1.60;;;22.20;99.90;;;;;;4994105;28;20019;-52
2024/01/07 12:25:57;;;;;;;10.77;2.30;;;22.20;99.90;;;;;;4992630;28;20031;-53
2024/01/07 12:28:24;;;;;;;5.47;1.48;;;22.30;99.90;;;;;;5009183;28;20034;-53
2024/01/07 12:30:50;;;;;;;2.30;1.40;;;22.30;99.90;;;;;;4992763;28;20497;-54
2024/01/07 12:33:26;;;;;;;7.35;1.80;;;22.30;99.90;;;;;;4994051;28;20026;-54
2024/01/07 12:35:51;;;;;;;2.78;1.85;;;22.30;99.90;;;;;;4993889;28;20049;-53
2024/01/07 12:38:25;;;;;;;10.57;1.85;;;22.40;99.90;;;;;;4994205;28;20168;-53
2024/01/07 12:40:52;;;;;;;3.63;2.05;;;22.40;99.90;;;;;;4994091;28;20038;-53
2024/01/07 12:43:18;;;;;;;2.70;1.88;;;22.50;99.90;;;;;;4994034;28;20030;-53
2024/01/07 12:45:44;;;;;;;4.25;1.50;;;22.50;99.90;;;;;;4993759;28;20030;-52